sensor_id;sensor_type;location;lat;lon;timestamp;P1;durP1;ratioP1;P2;durP2;ratioP2
31390;SDS011;18022;45.492;11.548;2022-12-20T00:01:31;45.25;;;28.50;;
31390;SDS011;18022;45.492;11.548;2022-12-20T00:03:58;43.03;;;26.50;;
31390;SDS011;18022;45.492;11.548;2022-12-20T00:06:24;44.63;;;27.70;;
31390;SDS011;18022;45.492;11.548;2022-12-20T00:08:54;43.50;;;28.13;;
31390;SDS011;18022;45.492;11.548;2022-12-20T00:11:20;44.45;;;28.95;;
31390;SDS011;18022;45.492;11.548;2022-12-20T00:13:46;46.10;;;28.92;;
31390;SDS011;18022;45.492;11.548;2022-12-20T00:16:19;41.65;;;27.55;;
31390;SDS011;18022;45.492;11.548;2022-12-20T00:18:46;42.55;;;27.67;;
31390;SDS011;18022;45.492;11.548;2022-12-20T00:21:12;43.30;;;26.15;;
31390;SDS011;18022;45.492;11.548;2022-12-20T00:23:39;43.60;;;27.60;;
31390;SDS011;18022;45.492;11.548;2022-12-20T00:26:09;47.25;;;28.83;;
31390;SDS011;18022;45.492;11.548;2022-12-20T00:28:36;41.05;;;27.38;;
31390;SDS011;18022;45.492;11.548;2022-12-20T00:31:03;45.10;;;27.92;;
31390;SDS011;18022;45.492;11.548;2022-12-20T00:33:29;39.47;;;25.17;;
31390;SDS011;18022;45.492;11.548;2022-12-20T00:35:55;37.55;;;25.50;;
31390;SDS011;18022;45.492;11.548;2022-12-20T00:38:24;35.80;;;24.27;;
31390;SDS011;18022;45.492;11.548;2022-12-20T00:41:08;41.28;;;26.90;;
31390;SDS011;18022;45.492;11.548;2022-12-20T00:43:34;34.92;;;23.05;;
31390;SDS011;18022;45.492;11.548;2022-12-20T00:46:01;34.67;;;23.38;;
31390;SDS011;18022;45.492;11.548;2022-12-20T00:48:27;34.20;;;23.17;;
31390;SDS011;18022;45.492;11.548;2022-12-20T00:50:57;33.17;;;22.83;;
31390;SDS011;18022;45.492;11.548;2022-12-20T00:53:24;35.58;;;23.95;;
31390;SDS011;18022;45.492;11.548;2022-12-20T00:55:50;32.53;;;23.08;;
31390;SDS011;18022;45.492;11.548;2022-12-20T00:58:16;37.58;;;23.90;;
31390;SDS011;18022;45.492;11.548;2022-12-20T01:00:42;32.25;;;22.63;;
31390;SDS011;18022;45.492;11.548;2022-12-20T01:03:08;33.28;;;22.20;;
31390;SDS011;18022;45.492;11.548;2022-12-20T01:05:34;34.20;;;23.48;;
31390;SDS011;18022;45.492;11.548;2022-12-20T01:08:01;32.47;;;22.13;;
31390;SDS011;18022;45.492;11.548;2022-12-20T01:10:27;34.30;;;22.42;;
31390;SDS011;18022;45.492;11.548;2022-12-20T01:12:53;33.38;;;23.42;;
31390;SDS011;18022;45.492;11.548;2022-12-20T01:15:19;34.17;;;23.83;;
31390;SDS011;18022;45.492;11.548;2022-12-20T01:17:45;36.70;;;23.38;;
31390;SDS011;18022;45.492;11.548;2022-12-20T01:20:11;34.20;;;23.42;;
31390;SDS011;18022;45.492;11.548;2022-12-20T01:22:37;36.80;;;24.77;;
31390;SDS011;18022;45.492;11.548;2022-12-20T01:25:03;37.65;;;24.27;;
31390;SDS011;18022;45.492;11.548;2022-12-20T01:27:30;34.30;;;23.83;;
31390;SDS011;18022;45.492;11.548;2022-12-20T01:29:56;36.28;;;23.23;;
31390;SDS011;18022;45.492;11.548;2022-12-20T01:32:22;40.72;;;24.17;;
31390;SDS011;18022;45.492;11.548;2022-12-20T01:34:49;35.67;;;23.27;;
31390;SDS011;18022;45.492;11.548;2022-12-20T01:37:15;35.17;;;23.58;;
31390;SDS011;18022;45.492;11.548;2022-12-20T01:39:41;33.95;;;21.73;;
31390;SDS011;18022;45.492;11.548;2022-12-20T01:42:09;33.95;;;22.75;;
31390;SDS011;18022;45.492;11.548;2022-12-20T01:47:07;35.28;;;23.50;;
31390;SDS011;18022;45.492;11.548;2022-12-20T01:49:35;31.52;;;22.52;;
31390;SDS011;18022;45.492;11.548;2022-12-20T01:52:05;32.92;;;22.83;;
31390;SDS011;18022;45.492;11.548;2022-12-20T01:57:10;30.15;;;21.48;;
31390;SDS011;18022;45.492;11.548;2022-12-20T01:59:37;34.80;;;22.83;;
31390;SDS011;18022;45.492;11.548;2022-12-20T02:02:05;36.08;;;24.13;;
31390;SDS011;18022;45.492;11.548;2022-12-20T02:04:33;41.95;;;23.40;;
31390;SDS011;18022;45.492;11.548;2022-12-20T02:06:59;36.67;;;23.60;;
31390;SDS011;18022;45.492;11.548;2022-12-20T02:09:26;33.45;;;23.17;;
31390;SDS011;18022;45.492;11.548;2022-12-20T02:16:53;35.60;;;23.90;;
31390;SDS011;18022;45.492;11.548;2022-12-20T02:19:26;37.65;;;25.05;;
31390;SDS011;18022;45.492;11.548;2022-12-20T02:22:11;37.97;;;23.70;;
31390;SDS011;18022;45.492;11.548;2022-12-20T02:32:34;36.13;;;23.20;;
31390;SDS011;18022;45.492;11.548;2022-12-20T02:35:04;39.20;;;24.50;;
31390;SDS011;18022;45.492;11.548;2022-12-20T02:39:56;40.00;;;24.75;;
31390;SDS011;18022;45.492;11.548;2022-12-20T02:42:23;36.58;;;24.98;;
31390;SDS011;18022;45.492;11.548;2022-12-20T02:44:55;37.53;;;25.05;;
31390;SDS011;18022;45.492;11.548;2022-12-20T02:47:44;36.53;;;24.52;;
31390;SDS011;18022;45.492;11.548;2022-12-20T02:50:12;40.50;;;25.65;;
31390;SDS011;18022;45.492;11.548;2022-12-20T02:52:39;40.42;;;25.17;;
31390;SDS011;18022;45.492;11.548;2022-12-20T02:55:06;37.55;;;25.80;;
31390;SDS011;18022;45.492;11.548;2022-12-20T02:57:42;39.78;;;25.15;;
31390;SDS011;18022;45.492;11.548;2022-12-20T03:00:13;36.20;;;23.52;;
31390;SDS011;18022;45.492;11.548;2022-12-20T03:02:39;38.85;;;24.38;;
31390;SDS011;18022;45.492;11.548;2022-12-20T03:05:25;35.88;;;24.05;;
31390;SDS011;18022;45.492;11.548;2022-12-20T03:07:51;35.07;;;24.57;;
31390;SDS011;18022;45.492;11.548;2022-12-20T03:10:18;38.40;;;23.95;;
31390;SDS011;18022;45.492;11.548;2022-12-20T03:12:44;37.13;;;24.52;;
31390;SDS011;18022;45.492;11.548;2022-12-20T03:15:10;34.90;;;23.73;;
31390;SDS011;18022;45.492;11.548;2022-12-20T03:17:36;38.05;;;24.10;;
31390;SDS011;18022;45.492;11.548;2022-12-20T03:20:03;32.72;;;23.42;;
31390;SDS011;18022;45.492;11.548;2022-12-20T03:22:30;41.30;;;24.83;;
31390;SDS011;18022;45.492;11.548;2022-12-20T03:24:57;39.75;;;23.95;;
31390;SDS011;18022;45.492;11.548;2022-12-20T03:27:23;35.80;;;23.73;;
31390;SDS011;18022;45.492;11.548;2022-12-20T03:29:51;33.42;;;22.98;;
31390;SDS011;18022;45.492;11.548;2022-12-20T03:32:17;33.83;;;23.45;;
31390;SDS011;18022;45.492;11.548;2022-12-20T03:34:43;31.45;;;22.33;;
31390;SDS011;18022;45.492;11.548;2022-12-20T03:37:09;32.28;;;20.65;;
31390;SDS011;18022;45.492;11.548;2022-12-20T03:39:35;28.63;;;21.00;;
31390;SDS011;18022;45.492;11.548;2022-12-20T03:42:01;33.42;;;22.58;;
31390;SDS011;18022;45.492;11.548;2022-12-20T03:44:27;34.97;;;22.70;;
31390;SDS011;18022;45.492;11.548;2022-12-20T03:46:53;37.38;;;23.38;;
31390;SDS011;18022;45.492;11.548;2022-12-20T03:49:19;30.80;;;22.70;;
31390;SDS011;18022;45.492;11.548;2022-12-20T03:51:45;35.22;;;23.50;;
31390;SDS011;18022;45.492;11.548;2022-12-20T03:54:11;34.28;;;23.55;;
31390;SDS011;18022;45.492;11.548;2022-12-20T03:56:38;34.50;;;22.15;;
31390;SDS011;18022;45.492;11.548;2022-12-20T03:59:04;33.38;;;23.65;;
31390;SDS011;18022;45.492;11.548;2022-12-20T04:01:30;34.50;;;22.45;;
31390;SDS011;18022;45.492;11.548;2022-12-20T04:04:00;32.20;;;22.73;;
31390;SDS011;18022;45.492;11.548;2022-12-20T04:06:26;37.10;;;23.77;;
31390;SDS011;18022;45.492;11.548;2022-12-20T04:08:53;34.60;;;23.90;;
31390;SDS011;18022;45.492;11.548;2022-12-20T04:11:19;34.72;;;23.38;;
31390;SDS011;18022;45.492;11.548;2022-12-20T04:13:45;35.78;;;24.33;;
31390;SDS011;18022;45.492;11.548;2022-12-20T04:16:16;31.50;;;22.30;;
31390;SDS011;18022;45.492;11.548;2022-12-20T04:18:42;32.88;;;23.35;;
31390;SDS011;18022;45.492;11.548;2022-12-20T04:21:08;33.03;;;23.27;;
31390;SDS011;18022;45.492;11.548;2022-12-20T04:23:36;32.90;;;22.67;;
31390;SDS011;18022;45.492;11.548;2022-12-20T04:26:03;35.47;;;23.42;;
31390;SDS011;18022;45.492;11.548;2022-12-20T04:28:29;36.10;;;24.23;;
31390;SDS011;18022;45.492;11.548;2022-12-20T04:30:56;36.47;;;23.65;;
31390;SDS011;18022;45.492;11.548;2022-12-20T04:33:22;35.50;;;22.88;;
31390;SDS011;18022;45.492;11.548;2022-12-20T04:35:48;32.20;;;22.05;;
31390;SDS011;18022;45.492;11.548;2022-12-20T04:38:16;32.03;;;21.57;;
31390;SDS011;18022;45.492;11.548;2022-12-20T04:40:42;32.78;;;22.77;;
31390;SDS011;18022;45.492;11.548;2022-12-20T04:43:08;30.52;;;22.42;;
31390;SDS011;18022;45.492;11.548;2022-12-20T04:45:34;33.90;;;22.70;;
31390;SDS011;18022;45.492;11.548;2022-12-20T04:48:00;36.65;;;23.00;;
31390;SDS011;18022;45.492;11.548;2022-12-20T04:50:27;35.13;;;22.85;;
31390;SDS011;18022;45.492;11.548;2022-12-20T04:52:53;32.67;;;22.63;;
31390;SDS011;18022;45.492;11.548;2022-12-20T04:55:38;33.42;;;22.27;;
31390;SDS011;18022;45.492;11.548;2022-12-20T04:58:04;34.13;;;23.10;;
31390;SDS011;18022;45.492;11.548;2022-12-20T05:00:31;34.92;;;23.63;;
31390;SDS011;18022;45.492;11.548;2022-12-20T05:02:57;39.03;;;25.48;;
31390;SDS011;18022;45.492;11.548;2022-12-20T05:05:23;34.60;;;24.08;;
31390;SDS011;18022;45.492;11.548;2022-12-20T05:07:50;36.38;;;23.80;;
31390;SDS011;18022;45.492;11.548;2022-12-20T05:10:16;34.33;;;23.58;;
31390;SDS011;18022;45.492;11.548;2022-12-20T05:12:42;37.15;;;23.90;;
31390;SDS011;18022;45.492;11.548;2022-12-20T05:15:09;35.50;;;23.70;;
31390;SDS011;18022;45.492;11.548;2022-12-20T05:17:35;33.13;;;23.48;;
31390;SDS011;18022;45.492;11.548;2022-12-20T05:20:01;38.10;;;24.63;;
31390;SDS011;18022;45.492;11.548;2022-12-20T05:22:27;37.00;;;24.38;;
31390;SDS011;18022;45.492;11.548;2022-12-20T05:25:12;32.08;;;23.38;;
31390;SDS011;18022;45.492;11.548;2022-12-20T05:27:57;34.55;;;24.27;;
31390;SDS011;18022;45.492;11.548;2022-12-20T05:30:23;36.88;;;24.85;;
31390;SDS011;18022;45.492;11.548;2022-12-20T05:32:49;36.95;;;25.10;;
31390;SDS011;18022;45.492;11.548;2022-12-20T05:35:16;38.58;;;25.67;;
31390;SDS011;18022;45.492;11.548;2022-12-20T05:37:42;37.20;;;26.70;;
31390;SDS011;18022;45.492;11.548;2022-12-20T05:40:08;39.78;;;25.95;;
31390;SDS011;18022;45.492;11.548;2022-12-20T05:42:34;42.30;;;26.13;;
31390;SDS011;18022;45.492;11.548;2022-12-20T05:45:01;42.38;;;27.23;;
31390;SDS011;18022;45.492;11.548;2022-12-20T05:47:27;40.97;;;27.85;;
31390;SDS011;18022;45.492;11.548;2022-12-20T05:49:57;41.45;;;27.92;;
31390;SDS011;18022;45.492;11.548;2022-12-20T05:52:24;41.33;;;27.40;;
31390;SDS011;18022;45.492;11.548;2022-12-20T05:54:50;42.78;;;27.20;;
31390;SDS011;18022;45.492;11.548;2022-12-20T05:57:16;39.60;;;26.45;;
31390;SDS011;18022;45.492;11.548;2022-12-20T05:59:42;37.60;;;25.05;;
31390;SDS011;18022;45.492;11.548;2022-12-20T06:02:09;33.22;;;23.02;;
31390;SDS011;18022;45.492;11.548;2022-12-20T06:04:36;33.57;;;24.33;;
31390;SDS011;18022;45.492;11.548;2022-12-20T06:07:02;31.88;;;22.30;;
31390;SDS011;18022;45.492;11.548;2022-12-20T06:09:29;33.53;;;23.02;;
31390;SDS011;18022;45.492;11.548;2022-12-20T06:11:55;29.95;;;21.52;;
31390;SDS011;18022;45.492;11.548;2022-12-20T06:14:21;33.85;;;22.98;;
31390;SDS011;18022;45.492;11.548;2022-12-20T06:16:47;33.60;;;21.98;;
31390;SDS011;18022;45.492;11.548;2022-12-20T06:19:13;32.67;;;22.23;;
31390;SDS011;18022;45.492;11.548;2022-12-20T06:21:40;33.72;;;23.45;;
31390;SDS011;18022;45.492;11.548;2022-12-20T06:24:06;32.38;;;23.60;;
31390;SDS011;18022;45.492;11.548;2022-12-20T06:26:33;34.95;;;23.88;;
31390;SDS011;18022;45.492;11.548;2022-12-20T06:29:03;34.50;;;22.63;;
31390;SDS011;18022;45.492;11.548;2022-12-20T06:31:31;36.70;;;22.92;;
31390;SDS011;18022;45.492;11.548;2022-12-20T06:33:57;33.58;;;23.08;;
31390;SDS011;18022;45.492;11.548;2022-12-20T06:36:23;36.47;;;24.08;;
31390;SDS011;18022;45.492;11.548;2022-12-20T06:38:50;38.92;;;24.50;;
31390;SDS011;18022;45.492;11.548;2022-12-20T06:41:16;42.63;;;26.10;;
31390;SDS011;18022;45.492;11.548;2022-12-20T06:43:42;45.05;;;27.20;;
31390;SDS011;18022;45.492;11.548;2022-12-20T06:46:08;44.58;;;27.67;;
31390;SDS011;18022;45.492;11.548;2022-12-20T06:48:34;43.95;;;27.33;;
31390;SDS011;18022;45.492;11.548;2022-12-20T06:51:00;47.28;;;28.95;;
31390;SDS011;18022;45.492;11.548;2022-12-20T06:53:26;43.58;;;27.15;;
31390;SDS011;18022;45.492;11.548;2022-12-20T06:55:52;40.33;;;25.58;;
31390;SDS011;18022;45.492;11.548;2022-12-20T06:58:18;25.35;;;16.92;;
31390;SDS011;18022;45.492;11.548;2022-12-20T07:00:45;35.58;;;23.38;;
31390;SDS011;18022;45.492;11.548;2022-12-20T07:03:11;36.42;;;23.60;;
31390;SDS011;18022;45.492;11.548;2022-12-20T07:05:37;36.35;;;24.73;;
31390;SDS011;18022;45.492;11.548;2022-12-20T07:08:04;35.03;;;24.17;;
31390;SDS011;18022;45.492;11.548;2022-12-20T07:10:30;38.38;;;26.23;;
31390;SDS011;18022;45.492;11.548;2022-12-20T07:12:58;37.20;;;26.05;;
31390;SDS011;18022;45.492;11.548;2022-12-20T07:15:24;40.13;;;25.67;;
31390;SDS011;18022;45.492;11.548;2022-12-20T07:17:50;43.13;;;26.88;;
31390;SDS011;18022;45.492;11.548;2022-12-20T07:20:16;38.47;;;26.63;;
31390;SDS011;18022;45.492;11.548;2022-12-20T07:22:42;39.38;;;26.45;;
31390;SDS011;18022;45.492;11.548;2022-12-20T07:25:09;41.60;;;25.92;;
31390;SDS011;18022;45.492;11.548;2022-12-20T07:27:35;34.88;;;25.00;;
31390;SDS011;18022;45.492;11.548;2022-12-20T07:30:01;39.45;;;25.30;;
31390;SDS011;18022;45.492;11.548;2022-12-20T07:32:29;37.13;;;25.92;;
31390;SDS011;18022;45.492;11.548;2022-12-20T07:34:55;35.60;;;24.27;;
31390;SDS011;18022;45.492;11.548;2022-12-20T07:37:21;36.08;;;24.60;;
31390;SDS011;18022;45.492;11.548;2022-12-20T07:39:47;35.97;;;23.85;;
31390;SDS011;18022;45.492;11.548;2022-12-20T07:42:13;33.40;;;23.52;;
31390;SDS011;18022;45.492;11.548;2022-12-20T07:44:39;41.05;;;24.80;;
31390;SDS011;18022;45.492;11.548;2022-12-20T07:47:05;35.33;;;24.58;;
31390;SDS011;18022;45.492;11.548;2022-12-20T07:49:31;36.90;;;24.88;;
31390;SDS011;18022;45.492;11.548;2022-12-20T07:51:57;37.30;;;26.15;;
31390;SDS011;18022;45.492;11.548;2022-12-20T07:56:57;42.90;;;25.52;;
31390;SDS011;18022;45.492;11.548;2022-12-20T07:59:28;36.42;;;25.50;;
31390;SDS011;18022;45.492;11.548;2022-12-20T08:01:58;43.10;;;25.55;;
31390;SDS011;18022;45.492;11.548;2022-12-20T08:04:24;39.05;;;25.75;;
31390;SDS011;18022;45.492;11.548;2022-12-20T08:06:51;43.33;;;25.77;;
31390;SDS011;18022;45.492;11.548;2022-12-20T08:09:20;36.97;;;25.42;;
31390;SDS011;18022;45.492;11.548;2022-12-20T08:11:46;36.78;;;25.52;;
31390;SDS011;18022;45.492;11.548;2022-12-20T08:14:13;35.90;;;25.50;;
31390;SDS011;18022;45.492;11.548;2022-12-20T08:16:39;41.15;;;25.70;;
31390;SDS011;18022;45.492;11.548;2022-12-20T08:19:05;36.03;;;26.15;;
31390;SDS011;18022;45.492;11.548;2022-12-20T08:21:31;40.28;;;25.35;;
31390;SDS011;18022;45.492;11.548;2022-12-20T08:23:57;39.92;;;26.50;;
31390;SDS011;18022;45.492;11.548;2022-12-20T08:26:23;40.05;;;25.58;;
31390;SDS011;18022;45.492;11.548;2022-12-20T08:28:50;43.50;;;27.65;;
31390;SDS011;18022;45.492;11.548;2022-12-20T08:31:16;40.08;;;27.48;;
31390;SDS011;18022;45.492;11.548;2022-12-20T08:33:42;42.20;;;27.27;;
31390;SDS011;18022;45.492;11.548;2022-12-20T08:36:09;38.97;;;27.10;;
31390;SDS011;18022;45.492;11.548;2022-12-20T08:38:35;40.45;;;27.02;;
31390;SDS011;18022;45.492;11.548;2022-12-20T08:41:02;43.95;;;28.10;;
31390;SDS011;18022;45.492;11.548;2022-12-20T08:43:29;40.93;;;28.17;;
31390;SDS011;18022;45.492;11.548;2022-12-20T08:45:55;46.58;;;29.38;;
31390;SDS011;18022;45.492;11.548;2022-12-20T08:48:21;46.25;;;28.92;;
31390;SDS011;18022;45.492;11.548;2022-12-20T08:50:52;48.53;;;29.88;;
31390;SDS011;18022;45.492;11.548;2022-12-20T08:53:19;46.25;;;30.13;;
31390;SDS011;18022;45.492;11.548;2022-12-20T08:55:45;50.50;;;30.85;;
31390;SDS011;18022;45.492;11.548;2022-12-20T08:58:11;47.33;;;30.73;;
31390;SDS011;18022;45.492;11.548;2022-12-20T09:00:37;47.47;;;30.33;;
31390;SDS011;18022;45.492;11.548;2022-12-20T09:03:03;48.40;;;29.10;;
31390;SDS011;18022;45.492;11.548;2022-12-20T09:05:31;45.40;;;30.52;;
31390;SDS011;18022;45.492;11.548;2022-12-20T09:07:57;42.95;;;28.77;;
31390;SDS011;18022;45.492;11.548;2022-12-20T09:10:23;44.75;;;28.65;;
31390;SDS011;18022;45.492;11.548;2022-12-20T09:12:49;42.17;;;28.55;;
31390;SDS011;18022;45.492;11.548;2022-12-20T09:15:15;45.03;;;29.65;;
31390;SDS011;18022;45.492;11.548;2022-12-20T09:17:41;43.67;;;28.00;;
31390;SDS011;18022;45.492;11.548;2022-12-20T09:20:07;40.88;;;27.77;;
31390;SDS011;18022;45.492;11.548;2022-12-20T09:22:33;41.67;;;26.75;;
31390;SDS011;18022;45.492;11.548;2022-12-20T09:24:59;40.28;;;26.27;;
31390;SDS011;18022;45.492;11.548;2022-12-20T09:27:25;39.50;;;26.63;;
31390;SDS011;18022;45.492;11.548;2022-12-20T09:29:51;38.55;;;26.13;;
31390;SDS011;18022;45.492;11.548;2022-12-20T09:32:17;42.15;;;27.40;;
31390;SDS011;18022;45.492;11.548;2022-12-20T09:34:43;38.33;;;27.58;;
31390;SDS011;18022;45.492;11.548;2022-12-20T09:37:11;39.60;;;28.75;;
31390;SDS011;18022;45.492;11.548;2022-12-20T09:39:37;42.63;;;28.77;;
31390;SDS011;18022;45.492;11.548;2022-12-20T09:42:06;43.40;;;28.40;;
31390;SDS011;18022;45.492;11.548;2022-12-20T09:44:34;42.55;;;29.05;;
31390;SDS011;18022;45.492;11.548;2022-12-20T09:47:03;43.28;;;29.15;;
31390;SDS011;18022;45.492;11.548;2022-12-20T09:49:32;45.65;;;28.75;;
31390;SDS011;18022;45.492;11.548;2022-12-20T09:59:55;49.45;;;26.98;;
31390;SDS011;18022;45.492;11.548;2022-12-20T10:02:23;43.03;;;27.08;;
31390;SDS011;18022;45.492;11.548;2022-12-20T10:04:49;40.47;;;25.73;;
31390;SDS011;18022;45.492;11.548;2022-12-20T10:20:02;30.83;;;21.25;;
31390;SDS011;18022;45.492;11.548;2022-12-20T10:22:37;30.33;;;19.95;;
31390;SDS011;18022;45.492;11.548;2022-12-20T10:25:16;29.15;;;20.35;;
31390;SDS011;18022;45.492;11.548;2022-12-20T10:27:42;25.40;;;16.58;;
31390;SDS011;18022;45.492;11.548;2022-12-20T10:30:11;29.58;;;17.65;;
31390;SDS011;18022;45.492;11.548;2022-12-20T10:32:37;31.52;;;21.45;;
31390;SDS011;18022;45.492;11.548;2022-12-20T10:37:37;34.15;;;22.38;;
31390;SDS011;18022;45.492;11.548;2022-12-20T10:40:03;30.17;;;18.85;;
31390;SDS011;18022;45.492;11.548;2022-12-20T10:45:02;32.25;;;21.45;;
31390;SDS011;18022;45.492;11.548;2022-12-20T10:47:39;31.23;;;20.87;;
31390;SDS011;18022;45.492;11.548;2022-12-20T10:50:07;39.67;;;26.75;;
31390;SDS011;18022;45.492;11.548;2022-12-20T10:52:33;44.28;;;25.05;;
31390;SDS011;18022;45.492;11.548;2022-12-20T10:54:59;41.17;;;26.25;;
31390;SDS011;18022;45.492;11.548;2022-12-20T10:57:28;45.25;;;28.63;;
31390;SDS011;18022;45.492;11.548;2022-12-20T10:59:59;44.83;;;29.30;;
31390;SDS011;18022;45.492;11.548;2022-12-20T11:02:27;35.85;;;24.40;;
31390;SDS011;18022;45.492;11.548;2022-12-20T11:05:02;39.05;;;22.80;;
31390;SDS011;18022;45.492;11.548;2022-12-20T11:07:31;32.95;;;22.48;;
31390;SDS011;18022;45.492;11.548;2022-12-20T11:10:00;29.88;;;21.65;;
31390;SDS011;18022;45.492;11.548;2022-12-20T11:12:27;35.10;;;20.83;;
31390;SDS011;18022;45.492;11.548;2022-12-20T11:15:09;32.95;;;21.83;;
31390;SDS011;18022;45.492;11.548;2022-12-20T11:17:37;37.10;;;23.42;;
31390;SDS011;18022;45.492;11.548;2022-12-20T11:25:19;34.25;;;23.13;;
31390;SDS011;18022;45.492;11.548;2022-12-20T11:36:01;46.55;;;32.92;;
31390;SDS011;18022;45.492;11.548;2022-12-20T11:38:45;35.45;;;24.40;;
31390;SDS011;18022;45.492;11.548;2022-12-20T11:41:17;39.08;;;24.70;;
31390;SDS011;18022;45.492;11.548;2022-12-20T11:46:25;32.33;;;22.23;;
31390;SDS011;18022;45.492;11.548;2022-12-20T11:49:11;33.03;;;22.50;;
31390;SDS011;18022;45.492;11.548;2022-12-20T11:51:44;36.03;;;27.40;;
31390;SDS011;18022;45.492;11.548;2022-12-20T11:54:20;32.00;;;21.15;;
31390;SDS011;18022;45.492;11.548;2022-12-20T11:56:50;35.35;;;20.75;;
31390;SDS011;18022;45.492;11.548;2022-12-20T12:02:08;30.75;;;20.95;;
31390;SDS011;18022;45.492;11.548;2022-12-20T12:04:38;34.95;;;23.65;;
31390;SDS011;18022;45.492;11.548;2022-12-20T12:07:19;31.80;;;21.35;;
31390;SDS011;18022;45.492;11.548;2022-12-20T12:12:23;29.35;;;20.73;;
31390;SDS011;18022;45.492;11.548;2022-12-20T12:14:55;30.67;;;20.83;;
31390;SDS011;18022;45.492;11.548;2022-12-20T12:17:44;31.95;;;22.17;;
31390;SDS011;18022;45.492;11.548;2022-12-20T12:22:40;26.92;;;19.75;;
31390;SDS011;18022;45.492;11.548;2022-12-20T12:25:08;29.73;;;20.25;;
31390;SDS011;18022;45.492;11.548;2022-12-20T12:27:37;29.70;;;20.48;;
31390;SDS011;18022;45.492;11.548;2022-12-20T12:30:03;30.43;;;20.50;;
31390;SDS011;18022;45.492;11.548;2022-12-20T12:32:40;28.48;;;20.90;;
31390;SDS011;18022;45.492;11.548;2022-12-20T12:45:27;34.08;;;22.25;;
31390;SDS011;18022;45.492;11.548;2022-12-20T12:47:57;29.17;;;21.02;;
31390;SDS011;18022;45.492;11.548;2022-12-20T12:50:25;26.88;;;20.35;;
31390;SDS011;18022;45.492;11.548;2022-12-20T12:52:54;30.33;;;20.65;;
31390;SDS011;18022;45.492;11.548;2022-12-20T12:57:53;31.55;;;20.70;;
31390;SDS011;18022;45.492;11.548;2022-12-20T13:01:08;31.08;;;20.88;;
31390;SDS011;18022;45.492;11.548;2022-12-20T13:03:12;28.73;;;19.17;;
31390;SDS011;18022;45.492;11.548;2022-12-20T13:05:39;32.17;;;22.27;;
31390;SDS011;18022;45.492;11.548;2022-12-20T13:08:13;34.20;;;21.80;;
31390;SDS011;18022;45.492;11.548;2022-12-20T13:13:27;39.28;;;26.80;;
31390;SDS011;18022;45.492;11.548;2022-12-20T13:16:03;33.20;;;21.85;;
31390;SDS011;18022;45.492;11.548;2022-12-20T13:18:30;28.02;;;19.98;;
31390;SDS011;18022;45.492;11.548;2022-12-20T13:23:41;36.45;;;24.70;;
31390;SDS011;18022;45.492;11.548;2022-12-20T13:26:41;37.28;;;25.33;;
31390;SDS011;18022;45.492;11.548;2022-12-20T13:28:53;34.60;;;24.95;;
31390;SDS011;18022;45.492;11.548;2022-12-20T13:33:48;36.90;;;26.60;;
31390;SDS011;18022;45.492;11.548;2022-12-20T13:36:39;46.33;;;30.13;;
31390;SDS011;18022;45.492;11.548;2022-12-20T13:39:38;43.20;;;28.27;;
31390;SDS011;18022;45.492;11.548;2022-12-20T13:44:43;41.83;;;26.10;;
31390;SDS011;18022;45.492;11.548;2022-12-20T13:49:42;46.78;;;31.40;;
31390;SDS011;18022;45.492;11.548;2022-12-20T13:54:38;40.25;;;27.88;;
31390;SDS011;18022;45.492;11.548;2022-12-20T13:57:05;43.67;;;29.75;;
31390;SDS011;18022;45.492;11.548;2022-12-20T13:59:32;40.38;;;27.73;;
31390;SDS011;18022;45.492;11.548;2022-12-20T14:01:59;38.85;;;25.20;;
31390;SDS011;18022;45.492;11.548;2022-12-20T14:04:26;43.53;;;29.30;;
31390;SDS011;18022;45.492;11.548;2022-12-20T14:06:54;37.67;;;26.83;;
31390;SDS011;18022;45.492;11.548;2022-12-20T14:09:29;38.08;;;26.27;;
31390;SDS011;18022;45.492;11.548;2022-12-20T14:12:01;37.85;;;25.80;;
31390;SDS011;18022;45.492;11.548;2022-12-20T14:14:27;51.97;;;34.08;;
31390;SDS011;18022;45.492;11.548;2022-12-20T14:16:53;45.60;;;32.58;;
31390;SDS011;18022;45.492;11.548;2022-12-20T14:19:19;44.67;;;29.33;;
31390;SDS011;18022;45.492;11.548;2022-12-20T14:21:45;21.02;;;16.20;;
31390;SDS011;18022;45.492;11.548;2022-12-20T14:24:13;43.20;;;27.33;;
31390;SDS011;18022;45.492;11.548;2022-12-20T14:29:09;34.88;;;24.92;;
31390;SDS011;18022;45.492;11.548;2022-12-20T14:31:39;37.58;;;25.13;;
31390;SDS011;18022;45.492;11.548;2022-12-20T14:36:35;41.20;;;25.20;;
31390;SDS011;18022;45.492;11.548;2022-12-20T14:39:09;36.90;;;26.00;;
31390;SDS011;18022;45.492;11.548;2022-12-20T14:41:46;47.10;;;31.52;;
31390;SDS011;18022;45.492;11.548;2022-12-20T14:44:12;47.45;;;31.35;;
31390;SDS011;18022;45.492;11.548;2022-12-20T14:46:45;46.97;;;31.33;;
31390;SDS011;18022;45.492;11.548;2022-12-20T14:51:45;42.50;;;27.85;;
31390;SDS011;18022;45.492;11.548;2022-12-20T14:56:46;40.38;;;26.63;;
31390;SDS011;18022;45.492;11.548;2022-12-20T14:59:15;39.70;;;27.95;;
31390;SDS011;18022;45.492;11.548;2022-12-20T15:01:42;45.83;;;26.83;;
31390;SDS011;18022;45.492;11.548;2022-12-20T15:06:53;112.15;;;53.85;;
31390;SDS011;18022;45.492;11.548;2022-12-20T15:09:19;90.75;;;46.78;;
31390;SDS011;18022;45.492;11.548;2022-12-20T15:11:45;86.15;;;43.33;;
31390;SDS011;18022;45.492;11.548;2022-12-20T15:14:18;77.07;;;40.67;;
31390;SDS011;18022;45.492;11.548;2022-12-20T15:16:46;56.78;;;34.40;;
31390;SDS011;18022;45.492;11.548;2022-12-20T15:19:13;55.45;;;35.05;;
31390;SDS011;18022;45.492;11.548;2022-12-20T15:21:42;58.45;;;34.67;;
31390;SDS011;18022;45.492;11.548;2022-12-20T15:24:13;45.00;;;28.40;;
31390;SDS011;18022;45.492;11.548;2022-12-20T15:26:40;48.13;;;29.90;;
31390;SDS011;18022;45.492;11.548;2022-12-20T15:29:11;61.65;;;37.63;;
31390;SDS011;18022;45.492;11.548;2022-12-20T15:31:40;52.05;;;33.25;;
31390;SDS011;18022;45.492;11.548;2022-12-20T15:34:13;61.03;;;36.80;;
31390;SDS011;18022;45.492;11.548;2022-12-20T15:36:40;57.83;;;37.42;;
31390;SDS011;18022;45.492;11.548;2022-12-20T15:39:09;57.72;;;38.80;;
31390;SDS011;18022;45.492;11.548;2022-12-20T15:41:36;60.90;;;40.15;;
31390;SDS011;18022;45.492;11.548;2022-12-20T15:44:06;59.90;;;39.55;;
31390;SDS011;18022;45.492;11.548;2022-12-20T15:46:35;52.95;;;36.63;;
31390;SDS011;18022;45.492;11.548;2022-12-20T15:49:01;51.35;;;34.45;;
31390;SDS011;18022;45.492;11.548;2022-12-20T15:51:31;47.63;;;30.60;;
31390;SDS011;18022;45.492;11.548;2022-12-20T15:53:58;51.88;;;35.05;;
31390;SDS011;18022;45.492;11.548;2022-12-20T15:56:24;58.55;;;39.47;;
31390;SDS011;18022;45.492;11.548;2022-12-20T15:58:50;65.03;;;41.55;;
31390;SDS011;18022;45.492;11.548;2022-12-20T16:01:18;60.17;;;41.22;;
31390;SDS011;18022;45.492;11.548;2022-12-20T16:06:11;52.42;;;34.38;;
31390;SDS011;18022;45.492;11.548;2022-12-20T16:08:37;51.05;;;34.33;;
31390;SDS011;18022;45.492;11.548;2022-12-20T16:11:04;53.45;;;35.60;;